Time;durP1;ratioP1;P1;durP2;ratioP2;P2;SDS_P1;SDS_P2;PMS_P1;PMS_P2;Temp;Humidity;BMP_temperature;BMP_pressure;BME280_temperature;BME280_humidity;BME280_pressure;Samples;Min_cycle;Max_cycle;Signal;HPM_P1;HPM_P2
2022/03/27 00:01:35;;;;;;;24.95;12.20;;;;;;;11.80;48.86;101778.50;4919848;29;20083;-72
2022/03/27 00:04:21;;;;;;;20.13;12.25;;;;;;;11.37;49.55;101784.78;4906185;29;20024;-72
2022/03/27 00:07:06;;;;;;;19.25;11.77;;;;;;;11.37;49.52;101784.78;4906306;29;20056;-72
2022/03/27 00:09:52;;;;;;;18.35;12.02;;;;;;;11.58;49.45;101786.47;4920477;29;20040;-72
2022/03/27 00:12:38;;;;;;;21.30;12.25;;;;;;;11.78;48.89;101779.41;4920100;29;20092;-73
2022/03/27 00:15:24;;;;;;;20.92;12.20;;;;;;;11.32;49.72;101773.47;4919799;29;20048;-73
2022/03/27 00:18:09;;;;;;;22.00;11.73;;;;;;;11.38;50.10;101789.19;4906586;29;20100;-73
2022/03/27 00:20:55;;;;;;;18.70;12.13;;;;;;;11.56;49.74;101781.22;4906128;29;20032;-72
2022/03/27 00:23:43;;;;;;;22.65;12.65;;;;;;;11.42;49.96;101783.06;4919942;29;20032;-72
2022/03/27 00:26:29;;;;;;;21.80;12.13;;;;;;;11.29;50.68;101776.06;4920442;29;20035;-71
2022/03/27 00:29:16;;;;;;;21.10;11.77;;;;;;;11.26;50.69;101767.34;4919705;29;20032;-72
2022/03/27 00:32:03;;;;;;;20.67;12.70;;;;;;;11.14;50.66;101777.91;4905903;29;20031;-72
2022/03/27 00:34:49;;;;;;;20.92;12.50;;;;;;;11.00;50.91;101777.03;4920207;29;20028;-72
2022/03/27 00:37:35;;;;;;;19.38;12.05;;;;;;;11.13;50.61;101766.50;4919773;29;20043;-73
2022/03/27 00:40:21;;;;;;;25.83;13.00;;;;;;;10.96;51.15;101773.56;4919633;29;20024;-72
2022/03/27 00:43:07;;;;;;;23.02;13.40;;;;;;;10.88;51.36;101772.72;4920113;29;20095;-72
2022/03/27 00:45:54;;;;;;;26.75;13.13;;;;;;;11.14;51.51;101773.53;4905883;29;20087;-73
2022/03/27 00:48:39;;;;;;;24.35;12.60;;;;;;;11.05;51.79;101776.16;4919738;29;20039;-73
2022/03/27 00:51:25;;;;;;;25.48;12.95;;;;;;;10.94;51.78;101771.81;4920054;29;20458;-71
2022/03/27 00:54:11;;;;;;;21.30;12.63;;;;;;;11.00;52.31;101774.41;4905335;29;20028;-72
2022/03/27 00:56:57;;;;;;;18.00;12.60;;;;;;;10.90;52.19;101773.59;4919354;29;20028;-72
2022/03/27 00:59:42;;;;;;;22.77;13.60;;;;;;;11.09;52.42;101777.91;4920297;29;20448;-71
2022/03/27 01:02:28;;;;;;;24.73;13.25;;;;;;;11.29;51.98;101778.69;4919002;29;20036;-72
2022/03/27 01:05:14;;;;;;;26.33;13.27;;;;;;;11.01;52.19;101784.06;4919769;29;20035;-72
2022/03/27 01:08:04;;;;;;;22.27;13.90;;;;;;;10.99;52.81;101777.91;4919801;29;20032;-73
2022/03/27 01:10:49;;;;;;;28.17;14.00;;;;;;;10.99;53.15;101775.31;4906700;29;20031;-73
2022/03/27 01:13:35;;;;;;;22.00;13.25;;;;;;;11.03;52.71;101777.03;4919128;29;20139;-72
2022/03/27 01:16:57;;;;;;;24.00;13.88;;;;;;;10.78;53.85;101763.13;4919027;29;20047;-71
2022/03/27 01:19:49;;;;;;;24.05;13.50;;;;;;;10.93;53.52;101767.47;4919869;29;20028;-72
2022/03/27 01:22:35;;;;;;;23.27;13.77;;;;;;;10.59;54.70;101774.50;4918928;29;20513;-72
2022/03/27 01:25:21;;;;;;;23.90;13.98;;;;;;;10.77;54.97;101766.59;4919042;29;20054;-73
2022/03/27 01:28:10;;;;;;;24.38;14.40;;;;;;;10.91;54.18;101766.56;4918755;29;20032;-72
2022/03/27 01:30:56;;;;;;;22.38;14.07;;;;;;;10.78;54.66;101759.63;4918905;29;20043;-73
2022/03/27 01:33:42;;;;;;;22.05;13.30;;;;;;;10.70;55.03;101767.50;4918626;29;20024;-72
2022/03/27 01:36:34;;;;;;;20.35;12.98;;;;;;;10.83;55.19;101770.97;4919586;29;20033;-73
2022/03/27 01:39:20;;;;;;;21.95;13.63;;;;;;;10.39;57.05;101764.88;4919221;29;20047;-72
2022/03/27 01:42:06;;;;;;;21.15;13.20;;;;;;;10.79;55.81;101757.00;4923052;29;20032;-72
2022/03/27 01:44:52;;;;;;;21.90;13.90;;;;;;;10.39;56.72;101770.13;4925151;29;20111;-73
2022/03/27 01:47:38;;;;;;;26.13;14.07;;;;;;;10.40;57.47;101757.03;4912131;29;20035;-72
2022/03/27 01:50:24;;;;;;;24.25;13.85;;;;;;;10.61;56.85;101772.72;4925328;29;20413;-72
2022/03/27 01:53:11;;;;;;;24.75;14.27;;;;;;;10.69;57.21;101759.66;4911232;29;20032;-73
2022/03/27 01:55:57;;;;;;;23.58;13.82;;;;;;;10.82;56.42;101757.00;4925041;29;20095;-72
2022/03/27 01:58:42;;;;;;;23.75;13.82;;;;;;;11.06;55.68;101756.06;4925525;29;20035;-71
2022/03/27 02:01:28;;;;;;;23.85;13.32;;;;;;;10.74;57.06;101757.88;4931984;29;20032;-71
2022/03/27 02:04:14;;;;;;;28.73;13.75;;;;;;;10.86;56.88;101750.88;4937407;29;20043;-71
2022/03/27 02:07:00;;;;;;;24.42;14.38;;;;;;;10.60;57.70;101759.66;4925575;29;20103;-72
2022/03/27 02:09:45;;;;;;;22.13;13.77;;;;;;;10.65;57.56;101752.66;4910163;29;20039;-72
2022/03/27 02:12:34;;;;;;;22.50;13.95;;;;;;;10.69;57.62;101760.50;4925430;29;20119;-73
2022/03/27 02:15:20;;;;;;;23.52;13.85;;;;;;;11.10;56.63;101749.94;4912379;29;20429;-73
2022/03/27 02:18:06;;;;;;;29.08;14.20;;;;;;;10.81;56.36;101757.84;4925435;29;20420;-72
2022/03/27 02:20:52;;;;;;;23.23;13.48;;;;;;;10.96;56.66;101756.94;4924277;29;20413;-72
2022/03/27 02:23:38;;;;;;;24.10;13.43;;;;;;;10.81;56.84;101755.22;4911752;29;20028;-71
2022/03/27 02:26:23;;;;;;;22.55;14.15;;;;;;;11.00;57.26;101756.06;4924636;29;20455;-72
2022/03/27 02:29:14;;;;;;;24.73;13.95;;;;;;;10.87;56.78;101755.25;4911261;29;20044;-72
2022/03/27 02:32:00;;;;;;;27.20;13.48;;;;;;;11.23;56.67;101765.63;4924891;29;20032;-72
2022/03/27 02:34:46;;;;;;;26.15;14.18;;;;;;;11.08;56.41;101751.66;4925360;29;20472;-73
2022/03/27 02:37:32;;;;;;;20.88;13.18;;;;;;;11.08;56.28;101757.78;4925062;29;20027;-72
2022/03/27 02:40:18;;;;;;;28.95;14.15;;;;;;;11.03;56.47;101761.31;4924927;29;20183;-71
2022/03/27 02:43:04;;;;;;;29.38;14.10;;;;;;;11.09;56.52;101762.16;4924670;29;20051;-72
2022/03/27 02:45:50;;;;;;;22.88;13.70;;;;;;;11.16;55.93;101756.03;4924370;29;20092;-73
2022/03/27 02:48:36;;;;;;;27.13;13.82;;;;;;;11.33;55.67;101759.44;4910746;29;20418;-71
2022/03/27 02:51:22;;;;;;;21.50;13.63;;;;;;;11.40;55.28;101762.91;4924528;29;20083;-72
2022/03/27 02:54:08;;;;;;;22.50;13.18;;;;;;;11.39;55.25;101775.19;4922121;29;20058;-72
2022/03/27 02:56:54;;;;;;;23.95;13.57;;;;;;;11.08;55.80;101765.66;4922034;29;20028;-72
2022/03/27 02:59:40;;;;;;;22.08;12.93;;;;;;;11.37;56.08;101769.06;4921713;29;20058;-72
2022/03/27 03:02:26;;;;;;;22.30;13.68;;;;;;;11.27;56.19;101769.97;4921257;29;20038;-71
2022/03/27 03:05:12;;;;;;;25.80;14.10;;;;;;;10.96;56.33;101762.19;4921362;29;20024;-72
2022/03/27 03:08:00;;;;;;;25.13;13.35;;;;;;;10.65;58.11;101771.84;4922167;29;20042;-71
2022/03/27 03:10:46;;;;;;;25.15;13.02;;;;;;;10.79;57.97;101767.50;4921282;29;20036;-72
2022/03/27 03:13:33;;;;;;;21.75;13.32;;;;;;;11.21;56.85;101772.59;4920671;29;20394;-72
2022/03/27 03:16:21;;;;;;;21.35;12.93;;;;;;;10.91;57.43;101775.31;4921551;29;20058;-71
2022/03/27 03:19:07;;;;;;;22.40;13.02;;;;;;;11.09;57.64;101777.91;4921378;29;20032;-72
2022/03/27 03:21:53;;;;;;;22.88;13.80;;;;;;;10.93;58.04;101780.56;4920939;29;20036;-72
2022/03/27 03:24:38;;;;;;;24.33;12.80;;;;;;;10.81;58.18;101778.81;4921264;29;20032;-72
2022/03/27 03:27:24;;;;;;;23.45;13.30;;;;;;;10.74;58.50;101782.34;4921443;29;20028;-73
2022/03/27 03:30:10;;;;;;;23.77;12.88;;;;;;;10.91;58.37;101777.94;4920956;29;20458;-72
2022/03/27 03:32:56;;;;;;;26.35;13.13;;;;;;;10.93;58.46;101778.81;4921345;29;20082;-73
2022/03/27 03:35:42;;;;;;;25.15;13.05;;;;;;;10.76;58.69;101777.13;4921266;29;20036;-72
2022/03/27 03:38:28;;;;;;;23.77;12.68;;;;;;;10.83;58.85;101771.84;4920579;29;20064;-72
2022/03/27 03:41:14;;;;;;;21.80;12.88;;;;;;;10.84;59.18;101783.22;4920589;29;20043;-72
2022/03/27 03:43:59;;;;;;;22.52;12.77;;;;;;;10.84;58.53;101789.31;4920571;29;20099;-72
2022/03/27 03:46:46;;;;;;;19.48;13.10;;;;;;;10.80;58.68;101792.81;4920811;29;20480;-72
2022/03/27 03:49:32;;;;;;;24.20;13.18;;;;;;;10.92;58.71;101787.56;4921222;29;20373;-71
2022/03/27 03:52:18;;;;;;;21.55;12.25;;;;;;;11.14;58.46;101797.13;4907120;29;20199;-72
2022/03/27 03:55:04;;;;;;;20.67;11.65;;;;;;;11.02;58.65;101798.91;4921207;29;20033;-73
2022/03/27 03:57:49;;;;;;;20.63;12.23;;;;;;;10.94;58.84;101805.91;4920068;29;20096;-73
2022/03/27 04:00:36;;;;;;;18.05;11.77;;;;;;;10.99;58.67;101801.53;4920973;29;20040;-72
2022/03/27 04:03:22;;;;;;;21.23;11.10;;;;;;;10.69;59.25;101806.81;4920147;29;20052;-73
2022/03/27 04:06:07;;;;;;;20.00;12.00;;;;;;;11.00;58.27;101798.00;4920453;29;20102;-73
2022/03/27 04:08:53;;;;;;;20.58;11.60;;;;;;;10.87;58.37;101804.16;4920245;29;20024;-73
2022/03/27 04:11:39;;;;;;;25.48;11.95;;;;;;;11.01;58.11;101808.50;4906477;29;20047;-72
2022/03/27 04:14:25;;;;;;;22.02;11.88;;;;;;;10.99;58.40;101818.16;4919685;29;20047;-73
2022/03/27 04:17:11;;;;;;;24.90;12.10;;;;;;;10.81;59.05;101826.00;4906770;29;20039;-73
2022/03/27 04:19:57;;;;;;;23.27;11.60;;;;;;;10.95;59.22;101818.13;4919925;29;20032;-72
2022/03/27 04:22:44;;;;;;;20.92;11.20;;;;;;;10.80;59.09;101815.56;4919818;29;20024;-73
2022/03/27 04:25:30;;;;;;;16.92;11.10;;;;;;;10.92;59.04;101829.50;4906475;29;20024;-72
2022/03/27 04:28:15;;;;;;;21.35;11.48;;;;;;;11.13;58.45;101826.84;4919627;29;20063;-72
2022/03/27 04:31:01;;;;;;;20.63;10.70;;;;;;;11.05;58.49;101836.47;4919972;29;20042;-71
2022/03/27 04:33:47;;;;;;;24.63;11.10;;;;;;;11.27;58.50;101826.81;4919638;29;20497;-73
2022/03/27 04:36:33;;;;;;;24.40;11.30;;;;;;;11.06;59.23;101830.38;4920015;29;20040;-73
2022/03/27 04:39:19;;;;;;;20.85;10.60;;;;;;;11.06;59.34;101833.00;4906233;29;20047;-73
2022/03/27 04:42:05;;;;;;;17.33;10.50;;;;;;;11.06;59.66;101839.97;4930919;29;20016;-72
2022/03/27 04:44:50;;;;;;;19.73;10.63;;;;;;;11.08;59.49;101839.09;4931096;29;20035;-73
2022/03/27 04:47:36;;;;;;;20.92;10.77;;;;;;;10.99;59.64;101846.09;4919550;29;20111;-73
2022/03/27 04:50:22;;;;;;;19.23;10.80;;;;;;;11.09;59.45;101840.84;4906216;29;20298;-73
2022/03/27 04:53:08;;;;;;;18.52;10.38;;;;;;;11.11;59.32;101853.94;4920203;29;20040;-72
2022/03/27 04:55:53;;;;;;;17.23;9.88;;;;;;;11.01;59.77;101844.38;4918757;29;20020;-72
2022/03/27 04:58:39;;;;;;;21.17;10.25;;;;;;;11.14;59.24;101854.84;4920274;28;20043;-73
2022/03/27 05:01:25;;;;;;;21.67;10.60;;;;;;;11.26;59.20;101860.06;4919772;29;20028;-72
2022/03/27 05:04:11;;;;;;;23.10;11.00;;;;;;;11.24;59.28;101863.53;4919054;29;20102;-73
2022/03/27 05:06:56;;;;;;;20.13;10.57;;;;;;;11.19;59.07;101860.06;4905351;29;20472;-72
2022/03/27 05:09:42;;;;;;;19.73;10.50;;;;;;;11.27;58.93;101850.44;4918990;29;20342;-72
2022/03/27 05:12:28;;;;;;;20.27;10.50;;;;;;;11.33;58.82;101863.53;4905554;29;20024;-73
2022/03/27 05:15:13;;;;;;;19.90;10.85;;;;;;;11.40;59.06;101860.88;4899866;29;20059;-73
2022/03/27 05:18:00;;;;;;;18.52;10.57;;;;;;;11.10;59.32;101857.47;4900717;29;20039;-72
2022/03/27 05:20:46;;;;;;;18.85;10.65;;;;;;;11.23;59.67;101864.41;4899494;29;20387;-72
2022/03/27 05:23:32;;;;;;;18.10;10.23;;;;;;;11.50;58.37;101865.25;4900906;29;20051;-71
2022/03/27 05:26:17;;;;;;;18.50;10.93;;;;;;;11.43;58.07;101867.88;4900485;29;20450;-72
2022/03/27 05:29:05;;;;;;;27.67;10.88;;;;;;;11.69;57.83;101861.69;4886762;29;20046;-72
2022/03/27 05:31:53;;;;;;;19.35;10.35;;;;;;;11.13;58.93;101853.06;4899866;29;20032;-71
2022/03/27 05:34:39;;;;;;;18.38;10.35;;;;;;;11.43;58.28;101854.75;4887154;29;20108;-73
2022/03/27 05:37:25;;;;;;;18.10;10.00;;;;;;;11.51;57.97;101853.88;4899651;29;20048;-72
2022/03/27 05:40:13;;;;;;;24.63;10.77;;;;;;;11.60;58.13;101855.56;4900183;29;20104;-74
2022/03/27 05:43:00;;;;;;;18.38;10.27;;;;;;;11.65;57.80;101845.97;4899288;29;20111;-73
2022/03/27 05:45:46;;;;;;;22.50;10.45;;;;;;;11.34;57.90;101852.16;4900353;29;20052;-72
2022/03/27 05:48:32;;;;;;;19.25;10.82;;;;;;;11.60;58.08;101850.31;4900486;29;20037;-72
2022/03/27 05:51:18;;;;;;;18.38;10.50;;;;;;;11.55;58.05;101854.72;4900413;29;20095;-72
2022/03/27 05:54:04;;;;;;;22.45;11.02;;;;;;;11.52;58.09;101846.84;4900541;29;20450;-72
2022/03/27 05:56:49;;;;;;;17.95;10.32;;;;;;;11.71;58.08;101849.44;4886770;29;20028;-72
2022/03/27 05:59:35;;;;;;;20.35;10.70;;;;;;;11.65;58.25;101849.47;4899844;29;20077;-73
2022/03/27 06:02:21;;;;;;;23.13;11.52;;;;;;;11.92;57.88;101857.22;4900234;29;20032;-73
2022/03/27 06:05:08;;;;;;;23.80;11.82;;;;;;;11.80;58.37;101867.78;4900531;29;20020;-73
2022/03/27 06:07:55;;;;;;;19.27;11.00;;;;;;;12.11;57.89;101861.50;4899935;29;20021;-72
2022/03/27 06:10:41;;;;;;;24.80;11.60;;;;;;;12.13;57.57;101874.66;4899636;29;20033;-72
2022/03/27 06:13:27;;;;;;;19.42;12.05;;;;;;;12.17;57.61;101869.34;4905813;29;20060;-72
2022/03/27 06:16:13;;;;;;;23.55;12.10;;;;;;;12.04;58.43;101870.31;4904382;29;20035;-74
2022/03/27 06:18:59;;;;;;;20.83;11.93;;;;;;;12.61;57.50;101872.56;4918776;29;20488;-72
2022/03/27 06:21:45;;;;;;;21.60;11.57;;;;;;;13.08;55.89;101877.47;4918921;29;20032;-72
2022/03/27 06:24:30;;;;;;;19.60;10.77;;;;;;;13.05;55.50;101880.09;4904669;29;20024;-72
2022/03/27 06:27:16;;;;;;;19.25;10.77;;;;;;;12.94;56.62;101879.31;4919421;29;20429;-72
2022/03/27 06:30:06;;;;;;;19.95;11.32;;;;;;;12.91;56.76;101874.94;4922402;29;20038;-72
2022/03/27 06:32:53;;;;;;;19.30;11.13;;;;;;;12.91;57.07;101882.81;4922110;29;20028;-72
2022/03/27 06:35:39;;;;;;;19.08;10.55;;;;;;;13.05;57.30;101885.38;4921986;29;20067;-73
2022/03/27 06:38:24;;;;;;;22.23;10.77;;;;;;;13.22;57.05;101880.84;4922750;29;20373;-72
2022/03/27 06:41:10;;;;;;;19.38;11.40;;;;;;;13.30;56.77;101879.00;4922623;29;20453;-72
2022/03/27 06:43:56;;;;;;;23.92;11.02;;;;;;;13.50;56.74;101877.88;4922271;29;20460;-73
2022/03/27 06:46:42;;;;;;;20.92;10.73;;;;;;;13.78;56.06;101879.31;4921619;29;20039;-73
2022/03/27 06:49:28;;;;;;;28.48;11.90;;;;;;;13.33;56.36;101874.56;4921951;29;20047;-73
2022/03/27 06:52:15;;;;;;;19.23;11.05;;;;;;;13.55;56.56;101877.84;4921217;29;20043;-72
2022/03/27 06:55:03;;;;;;;22.75;11.48;;;;;;;13.86;56.71;101877.47;4921114;29;20096;-73
2022/03/27 06:57:49;;;;;;;17.50;10.65;;;;;;;14.01;56.16;101873.75;4921778;29;20059;-73
2022/03/27 07:03:39;;;;;;;20.98;11.32;;;;;;;14.12;55.59;101872.72;4921428;29;20374;-73
2022/03/27 07:06:25;;;;;;;19.77;10.57;;;;;;;14.36;54.92;101877.69;4921331;29;20472;-72
2022/03/27 07:09:11;;;;;;;18.45;10.45;;;;;;;14.25;55.45;101879.63;4921290;29;20114;-72
2022/03/27 07:11:57;;;;;;;20.50;10.52;;;;;;;14.27;56.22;101885.72;4921641;29;20038;-73
2022/03/27 07:14:42;;;;;;;20.45;10.75;;;;;;;14.04;57.41;101890.44;4920733;29;20044;-73
2022/03/27 07:17:28;;;;;;;23.55;10.98;;;;;;;13.91;56.80;101891.44;4922032;29;20412;-73
2022/03/27 07:20:26;;;;;;;21.15;10.57;;;;;;;14.07;56.66;101895.63;4921280;29;20032;-73
2022/03/27 07:23:17;;;;;;;19.92;10.98;;;;;;;14.28;56.25;101894.53;4921037;29;20107;-74
2022/03/27 07:26:03;;;;;;;21.27;11.07;;;;;;;14.46;55.79;101891.59;4907843;29;20032;-74
2022/03/27 07:28:49;;;;;;;21.02;11.40;;;;;;;14.62;55.17;101893.13;4907766;29;20034;-72
2022/03/27 07:31:35;;;;;;;23.48;11.18;;;;;;;14.90;53.94;101885.66;4920859;29;20031;-73
2022/03/27 07:34:21;;;;;;;20.70;10.32;;;;;;;15.70;52.24;101875.38;4921079;29;20024;-73
2022/03/27 07:37:08;;;;;;;19.17;10.07;;;;;;;15.11;52.22;101867.66;4921563;29;20135;-74
2022/03/27 07:39:54;;;;;;;18.95;10.32;;;;;;;15.50;50.81;101866.09;4920446;29;20032;-73
2022/03/27 07:42:47;;;;;;;18.02;9.77;;;;;;;15.73;50.36;101863.88;4921342;29;20134;-72
2022/03/27 07:45:33;;;;;;;22.05;10.77;;;;;;;15.44;50.21;101859.19;4920582;29;20032;-72
2022/03/27 07:48:19;;;;;;;17.48;10.38;;;;;;;15.76;49.65;101875.25;4920877;29;20373;-72
2022/03/27 07:51:06;;;;;;;23.15;10.27;;;;;;;15.58;49.96;101882.66;4921104;29;20361;-72
2022/03/27 07:53:52;;;;;;;18.75;10.57;;;;;;;15.69;49.83;101878.03;4907131;29;20070;-72
2022/03/27 07:56:37;;;;;;;20.35;11.50;;;;;;;15.64;50.36;101890.47;4921152;29;20418;-74
2022/03/27 07:59:25;;;;;;;24.10;11.40;;;;;;;16.20;49.13;101896.31;4920374;29;20047;-74
2022/03/27 08:02:11;;;;;;;23.77;12.07;;;;;;;16.38;48.90;101901.22;4920542;29;20060;-74
2022/03/27 08:04:57;;;;;;;28.23;12.57;;;;;;;16.34;48.61;101903.97;4907529;29;20031;-73
2022/03/27 08:07:42;;;;;;;26.15;11.75;;;;;;;16.63;48.29;101920.09;4920041;29;20062;-72
2022/03/27 08:10:28;;;;;;;20.10;11.85;;;;;;;16.58;47.87;101917.56;4920727;29;20183;-73
2022/03/27 08:13:14;;;;;;;26.10;13.65;;;;;;;16.76;47.94;101914.47;4906101;29;20123;-73
2022/03/27 08:16:00;;;;;;;20.13;11.50;;;;;;;17.07;47.23;101915.47;4919927;29;20024;-72
2022/03/27 08:18:45;;;;;;;20.90;11.80;;;;;;;17.27;46.82;101920.25;4906696;29;20139;-72
2022/03/27 08:21:31;;;;;;;24.58;11.95;;;;;;;17.09;46.95;101923.38;4906135;29;20373;-73
2022/03/27 08:24:17;;;;;;;20.15;12.45;;;;;;;17.72;45.88;101921.72;4919875;29;20373;-72
2022/03/27 08:27:04;;;;;;;21.08;12.25;;;;;;;17.29;46.18;101924.63;4905800;29;20051;-74
2022/03/27 08:29:50;;;;;;;20.90;12.05;;;;;;;17.59;45.86;101930.91;4920798;29;20170;-73
2022/03/27 08:32:35;;;;;;;22.70;12.80;;;;;;;17.52;45.41;101929.34;4919614;29;20103;-72
2022/03/27 08:35:21;;;;;;;23.08;12.60;;;;;;;17.68;45.50;101930.66;4920417;29;20045;-72
2022/03/27 08:38:12;;;;;;;27.60;13.70;;;;;;;17.81;45.45;101935.56;4920117;29;20046;-71
2022/03/27 08:41:01;;;;;;;22.55;12.85;;;;;;;17.85;44.70;101936.38;4919673;29;20091;-72
2022/03/27 08:43:47;;;;;;;84.63;51.08;;;;;;;18.09;44.04;101930.38;4920618;29;20141;-71
2022/03/27 08:46:33;;;;;;;28.55;15.10;;;;;;;18.15;43.45;101925.75;4919885;29;20043;-72
2022/03/27 08:49:48;;;;;;;36.20;19.95;;;;;;;18.50;42.71;101919.41;4919969;29;20126;-72
2022/03/27 08:52:41;;;;;;;26.45;13.88;;;;;;;18.31;43.42;101916.41;4919561;29;20098;-72
2022/03/27 08:55:57;;;;;;;29.88;14.48;;;;;;;18.61;43.63;101912.84;4919359;29;20119;-71
2022/03/27 08:58:43;;;;;;;24.55;14.38;;;;;;;18.30;43.55;101913.81;4919828;29;20111;-71
2022/03/27 09:01:29;;;;;;;22.90;14.20;;;;;;;18.47;42.73;101911.53;4919904;29;20046;-71
2022/03/27 09:04:15;;;;;;;24.00;13.88;;;;;;;19.31;41.55;101903.47;4919013;29;20449;-72
2022/03/27 09:07:01;;;;;;;25.98;14.50;;;;;;;19.17;41.13;101895.91;4919672;29;20040;-72
2022/03/27 09:09:46;;;;;;;29.42;19.13;;;;;;;19.15;41.09;101910.19;4919526;29;20426;-71
2022/03/27 09:12:33;;;;;;;27.08;15.50;;;;;;;19.44;40.46;101898.59;4919563;29;20437;-72
2022/03/27 09:15:23;;;;;;;25.83;15.25;;;;;;;19.58;40.08;101896.31;4918780;29;20099;-72
2022/03/27 09:18:14;;;;;;;25.88;14.35;;;;;;;20.08;39.28;101893.53;4919363;29;20048;-71
2022/03/27 09:21:01;;;;;;;23.10;14.70;;;;;;;19.75;39.86;101893.91;4918800;29;20366;-72
2022/03/27 09:23:59;;;;;;;30.23;14.95;;;;;;;19.69;39.55;101894.97;4919485;29;20098;-72
2022/03/27 09:26:58;;;;;;;30.95;14.38;;;;;;;19.51;40.11;101889.47;4919485;29;20035;-71
2022/03/27 09:30:07;;;;;;;27.90;14.90;;;;;;;19.55;39.46;101889.31;4919256;29;20032;-73
2022/03/27 09:32:53;;;;;;;32.85;13.70;;;;;;;19.85;39.94;101874.88;4919439;29;20043;-72
2022/03/27 09:35:39;;;;;;;77.95;46.65;;;;;;;20.53;38.52;101878.44;4919070;29;20032;-72
2022/03/27 09:38:25;;;;;;;25.45;14.18;;;;;;;20.32;37.66;101879.31;4918728;29;20032;-71
2022/03/27 09:41:34;;;;;;;25.30;14.15;;;;;;;20.31;37.59;101876.69;4904596;29;20031;-71
2022/03/27 09:44:29;;;;;;;24.02;14.13;;;;;;;20.22;37.46;101877.06;4906293;29;20369;-73
2022/03/27 09:47:14;;;;;;;21.75;13.90;;;;;;;20.49;37.09;101875.97;4919441;29;20043;-73
2022/03/27 09:50:01;;;;;;;25.42;13.65;;;;;;;20.85;37.05;101870.00;4927161;29;20064;-70
2022/03/27 09:52:47;;;;;;;36.45;14.23;;;;;;;20.55;36.42;101870.41;4924647;29;20453;-71
2022/03/27 09:55:32;;;;;;;25.48;13.98;;;;;;;20.43;36.44;101870.88;4905322;29;20047;-72
2022/03/27 09:58:40;;;;;;;26.10;13.52;;;;;;;20.56;35.58;101870.34;4918745;29;20040;-71
2022/03/27 10:01:26;;;;;;;23.67;12.95;;;;;;;20.14;35.72;101864.06;4919191;29;20028;-72
2022/03/27 10:04:14;;;;;;;22.45;13.75;;;;;;;20.22;34.84;101856.66;4922762;29;20251;-72
2022/03/27 10:07:16;;;;;;;20.17;13.15;;;;;;;20.53;35.33;101848.31;4909696;29;20102;-72
2022/03/27 10:10:14;;;;;;;21.45;13.73;;;;;;;20.72;35.09;101838.59;4922311;29;20405;-72
2022/03/27 10:13:00;;;;;;;25.38;13.98;;;;;;;20.71;35.02;101850.19;4922254;29;20039;-72
2022/03/27 10:15:46;;;;;;;22.85;13.60;;;;;;;20.64;34.73;101849.59;4922151;29;20036;-73
2022/03/27 10:18:32;;;;;;;24.80;13.30;;;;;;;20.48;34.28;101845.81;4922831;29;20361;-72
2022/03/27 10:21:18;;;;;;;22.02;13.75;;;;;;;20.35;34.69;101849.91;4922211;29;20572;-72
2022/03/27 10:24:14;;;;;;;26.30;14.52;;;;;;;20.59;34.89;101846.25;4922732;29;20028;-72
2022/03/27 10:27:02;;;;;;;21.95;13.18;;;;;;;20.70;34.15;101862.63;4921906;29;20020;-72
2022/03/27 10:29:48;;;;;;;22.65;12.82;;;;;;;20.73;34.02;101857.19;4922202;29;20575;-72
2022/03/27 10:32:35;;;;;;;22.75;12.20;;;;;;;20.88;33.88;101859.22;4921948;29;20441;-72
2022/03/27 10:35:35;;;;;;;23.60;12.48;;;;;;;20.68;33.84;101858.31;4922098;29;20025;-71
2022/03/27 10:38:40;;;;;;;22.15;11.50;;;;;;;20.78;33.40;101844.53;4921986;29;20091;-71
2022/03/27 10:41:43;;;;;;;18.75;11.75;;;;;;;21.43;32.93;101855.09;4922026;29;20107;-72
2022/03/27 10:44:36;;;;;;;22.48;11.55;;;;;;;21.75;32.57;101842.09;4921493;29;20038;-72
2022/03/27 10:47:24;;;;;;;25.23;11.13;;;;;;;21.41;31.94;101844.50;4922173;29;20365;-71
2022/03/27 10:50:09;;;;;;;16.92;10.25;;;;;;;21.33;31.83;101837.75;4921799;29;20036;-71
2022/03/27 10:52:58;;;;;;;17.92;10.98;;;;;;;21.97;31.30;101824.16;4921592;29;20067;-72
2022/03/27 10:55:48;;;;;;;21.67;11.00;;;;;;;21.91;31.04;101823.56;4921480;29;20032;-72
2022/03/27 10:58:40;;;;;;;19.08;10.77;;;;;;;22.19;30.88;101819.50;4921383;29;20038;-72
2022/03/27 11:01:26;;;;;;;15.75;10.88;;;;;;;22.09;30.46;101820.03;4921573;29;20031;-71
2022/03/27 11:04:19;;;;;;;18.77;10.98;;;;;;;22.17;30.35;101817.84;4907333;29;20370;-72
2022/03/27 11:07:17;;;;;;;17.17;9.95;;;;;;;22.02;30.16;101829.28;4921550;29;20027;-72
2022/03/27 11:10:41;;;;;;;21.85;11.68;;;;;;;21.91;30.32;101812.91;4921865;29;20394;-72
2022/03/27 11:13:27;;;;;;;16.63;10.68;;;;;;;22.14;30.36;101818.03;4920667;29;20044;-71
2022/03/27 11:16:14;;;;;;;18.92;11.10;;;;;;;22.70;29.79;101808.09;4906983;29;20032;-71
2022/03/27 11:19:00;;;;;;;18.95;10.55;;;;;;;22.49;29.95;101803.84;4922339;29;20066;-71
2022/03/27 11:21:46;;;;;;;17.83;10.07;;;;;;;22.73;29.53;101803.50;4921689;29;20037;-73
2022/03/27 11:24:32;;;;;;;15.05;9.50;;;;;;;23.00;28.99;101795.88;4921753;29;20107;-73
2022/03/27 11:28:11;;;;;;;17.67;10.10;;;;;;;22.88;29.23;101792.03;4920974;29;20198;-71
2022/03/27 11:30:57;;;;;;;21.85;10.82;;;;;;;22.55;29.90;101792.88;4861695;29;20064;-72
2022/03/27 11:33:45;;;;;;;15.82;10.43;;;;;;;23.42;29.18;101786.50;4920836;29;20028;-73
2022/03/27 11:36:32;;;;;;;28.02;12.00;;;;;;;23.17;29.35;101796.72;4921297;29;20043;-72
2022/03/27 11:39:33;;;;;;;18.20;9.75;;;;;;;23.38;29.34;101784.03;4920710;29;20040;-73
2022/03/27 11:42:31;;;;;;;18.60;10.10;;;;;;;22.97;29.31;101779.97;4920748;29;20111;-72
2022/03/27 11:45:21;;;;;;;15.57;9.85;;;;;;;23.23;29.01;101768.84;4920741;29;20322;-70
2022/03/27 11:48:14;;;;;;;19.02;9.07;;;;;;;23.16;28.73;101770.91;4921817;28;20024;-72
2022/03/27 11:51:00;;;;;;;17.67;8.75;;;;;;;23.07;28.80;101768.72;4921052;28;20036;-72
2022/03/27 11:53:46;;;;;;;18.60;9.20;;;;;;;23.58;28.72;101756.25;4921150;29;20104;-72
2022/03/27 11:56:32;;;;;;;16.25;9.60;;;;;;;23.30;28.65;101752.38;4920962;29;20042;-71
2022/03/27 11:59:18;;;;;;;13.85;8.63;;;;;;;23.73;28.77;101750.03;4921004;29;20549;-72
2022/03/27 12:02:04;;;;;;;16.60;8.88;;;;;;;23.46;29.06;101743.53;4921577;28;20058;-71
2022/03/27 12:04:54;;;;;;;14.35;8.80;;;;;;;23.82;28.62;101746.84;4922679;28;20087;-74
2022/03/27 12:07:57;;;;;;;14.52;8.65;;;;;;;23.68;28.77;101742.25;4920993;29;20042;-73
2022/03/27 12:10:49;;;;;;;21.70;8.60;;;;;;;23.93;28.57;101744.44;4920098;29;20135;-72
2022/03/27 12:13:39;;;;;;;16.27;8.32;;;;;;;23.75;29.22;101740.94;4920598;29;20094;-71
2022/03/27 12:16:26;;;;;;;17.13;8.80;;;;;;;23.94;29.01;101730.97;4920344;29;20092;-72
2022/03/27 12:19:15;;;;;;;13.77;8.50;;;;;;;24.37;28.77;101729.38;4920673;29;20028;-72
2022/03/27 12:22:01;;;;;;;17.23;8.88;;;;;;;23.70;29.42;101718.94;4906475;29;20028;-72
2022/03/27 12:24:47;;;;;;;21.63;9.27;;;;;;;23.77;29.72;101714.09;4919932;29;20036;-73
2022/03/27 12:30:40;;;;;;;16.77;8.75;;;;;;;23.87;29.41;101712.66;4924959;29;20513;-72
2022/03/27 12:33:27;;;;;;;17.80;8.85;;;;;;;24.04;29.54;101707.22;4920364;29;20031;-72
2022/03/27 12:36:14;;;;;;;16.10;9.25;;;;;;;23.96;29.60;101707.69;4920324;29;20035;-71
2022/03/27 12:39:00;;;;;;;22.60;9.40;;;;;;;23.64;30.34;101718.41;4919612;29;20039;-73
2022/03/27 12:41:46;;;;;;;26.00;9.65;;;;;;;23.80;30.02;101725.53;4920223;29;20346;-73
2022/03/27 12:44:49;;;;;;;16.10;9.50;;;;;;;23.50;30.28;101715.66;4919566;29;20028;-72
2022/03/27 12:47:46;;;;;;;16.58;9.15;;;;;;;23.57;30.13;101706.31;4920317;29;20361;-72
2022/03/27 12:50:41;;;;;;;16.90;8.75;;;;;;;23.52;30.53;101710.13;4920204;29;20032;-73